createdAt,value
2023-01-28T00:01:39.494Z,-1.25
2023-01-28T00:13:39.953Z,-1.34
2023-01-28T00:25:40.395Z,-1.29
2023-01-28T00:37:40.820Z,-1.35
2023-01-28T00:49:41.308Z,-1.30
2023-01-28T01:01:41.781Z,-1.29
2023-01-28T01:13:42.141Z,-1.29
2023-01-28T01:25:42.626Z,-1.25
2023-01-28T01:37:43.064Z,-1.34
2023-01-28T01:49:43.526Z,-1.31
2023-01-28T02:01:43.989Z,-1.36
2023-01-28T02:13:44.445Z,-1.43
2023-01-28T02:25:44.894Z,-1.36
2023-01-28T07:31:00.078Z,-1.33
2023-01-28T07:43:00.436Z,-1.24
2023-01-28T07:55:00.932Z,-1.10
2023-01-28T08:07:01.385Z,-0.96
2023-01-28T08:19:01.817Z,-1.18
2023-01-28T08:31:02.334Z,-1.02
2023-01-28T08:43:02.704Z,-0.98
2023-01-28T08:55:03.168Z,-0.68
2023-01-28T09:07:03.620Z,-0.62
2023-01-28T09:19:04.089Z,-0.59
2023-01-28T09:31:04.715Z,-0.48
2023-01-28T09:43:04.957Z,-0.50
2023-01-28T09:55:05.437Z,-0.65
2023-01-28T10:07:05.858Z,-0.57
2023-01-28T10:19:06.331Z,-0.57
2023-01-28T10:31:06.815Z,-0.50
2023-01-28T10:43:07.212Z,-0.33
2023-01-28T10:55:07.648Z,-0.15
2023-01-28T11:07:08.125Z,0.15
2023-01-28T11:19:08.638Z,0.05
2023-01-28T11:31:09.105Z,-0.04
2023-01-28T11:43:09.462Z,-0.09
2023-01-28T11:55:09.943Z,-0.15
2023-01-28T12:07:10.407Z,-0.16
2023-01-28T12:19:11.376Z,-0.16
2023-01-28T12:31:11.405Z,-0.23
2023-01-28T12:43:11.758Z,-0.23
2023-01-28T12:55:12.192Z,-0.22
2023-01-28T13:07:12.670Z,-0.30
2023-01-28T13:19:13.103Z,-0.34
2023-01-28T13:31:13.523Z,-0.46
2023-01-28T13:43:14.025Z,-0.27
2023-01-28T13:55:20.823Z,-0.21
2023-01-28T14:07:17.354Z,-0.44
2023-01-28T14:19:15.352Z,-0.43
2023-01-28T14:31:15.894Z,-0.32
2023-01-28T14:43:16.222Z,-0.47
2023-01-28T14:55:16.730Z,-0.58
2023-01-28T15:07:17.189Z,-0.62
2023-01-28T15:19:18.431Z,-0.63
2023-01-28T15:31:18.175Z,-0.53
2023-01-28T15:43:18.528Z,-0.48
2023-01-28T15:55:19.632Z,-0.59
2023-01-28T16:07:19.433Z,-0.49
2023-01-28T16:19:19.882Z,-0.39
2023-01-28T16:31:20.426Z,-0.35
2023-01-28T16:43:20.743Z,-0.31
2023-01-28T16:55:21.257Z,-0.37
2023-01-28T17:07:21.667Z,-0.30
2023-01-28T17:19:22.176Z,-0.29
